Time;durP1;ratioP1;P1;durP2;ratioP2;P2;SDS_P1;SDS_P2;PMS_P1;PMS_P2;Temp;Humidity;BMP_temperature;BMP_pressure;BME280_temperature;BME280_humidity;BME280_pressure;Samples;Min_cycle;Max_cycle;Signal;HPM_P1;HPM_P2
2022/08/12 00:43:19;;;;;;;5.10;3.03;;;;;;;22.96;53.27;102139.44;5148731;28;20832;-58
2022/08/12 00:48:43;;;;;;;5.88;3.72;;;;;;;22.87;53.59;102137.91;5143090;28;20501;-59
2022/08/12 00:51:16;;;;;;;7.70;3.78;;;;;;;22.78;53.68;102120.25;5133096;28;20428;-58
2022/08/12 00:53:48;;;;;;;5.27;3.80;;;;;;;22.83;53.77;102133.97;5146473;28;20512;-59
2022/08/12 00:56:22;;;;;;;5.43;3.60;;;;;;;22.80;53.80;102128.97;5146353;28;20862;-59
2022/08/12 00:58:59;;;;;;;7.47;3.72;;;;;;;22.80;54.00;102134.34;5148795;28;20427;-59
2022/08/12 01:01:33;;;;;;;5.80;3.80;;;;;;;22.77;53.95;102129.38;5150259;28;20431;-59
2022/08/12 01:12:43;;;;;;;9.50;4.15;;;;;;;22.67;54.59;102140.50;5150566;28;20953;-60
2022/08/12 01:15:18;;;;;;;8.00;3.97;;;;;;;22.63;54.68;102139.22;5144495;28;20854;-58
2022/08/12 01:17:51;;;;;;;7.10;4.07;;;;;;;22.59;54.89;102137.97;5150413;28;20845;-59
2022/08/12 01:20:34;;;;;;;5.93;3.90;;;;;;;22.54;54.93;102135.03;5150604;28;20917;-59
2022/08/12 01:23:40;;;;;;;4.85;3.70;;;;;;;22.50;55.18;102134.59;5150604;28;20466;-59
2022/08/12 01:26:19;;;;;;;9.63;4.28;;;;;;;22.46;55.17;102127.94;5163206;28;20447;-60
2022/08/12 01:28:57;;;;;;;9.80;4.68;;;;;;;22.44;55.37;102123.78;5169024;28;20423;-60
2022/08/12 01:31:31;;;;;;;5.30;3.73;;;;;;;22.43;55.51;102122.94;5170715;28;20502;-60
2022/08/12 01:34:07;;;;;;;6.13;3.95;;;;;;;22.43;55.42;102125.66;5170217;28;20768;-60
2022/08/12 01:36:44;;;;;;;5.75;3.95;;;;;;;22.42;55.73;102121.31;5160185;28;20801;-59
2022/08/12 01:39:21;;;;;;;8.48;4.13;;;;;;;22.41;55.61;102130.38;5148067;28;20805;-58
2022/08/12 01:41:59;;;;;;;6.57;4.40;;;;;;;22.41;55.64;102121.47;5148921;28;20599;-58
2022/08/12 01:44:32;;;;;;;7.55;4.55;;;;;;;22.37;55.66;102123.75;5143427;28;20494;-59
2022/08/12 01:47:18;;;;;;;8.30;4.00;;;;;;;22.31;55.83;102119.97;5146907;28;20760;-59
2022/08/12 01:50:17;;;;;;;6.07;4.43;;;;;;;22.28;55.97;102124.91;5135870;28;20425;-59
2022/08/12 01:53:32;;;;;;;8.55;5.07;;;;;;;22.20;56.01;102127.75;5138568;28;20419;-59
2022/08/12 01:56:05;;;;;;;5.18;4.43;;;;;;;22.08;56.33;102120.19;5137710;28;20561;-59
2022/08/12 02:01:39;;;;;;;7.38;5.03;;;;;;;21.92;56.60;102131.22;5113778;28;21061;-59
2022/08/12 02:13:54;;;;;;;8.05;5.85;;;;;;;21.73;56.73;102113.88;5139892;28;20511;-59
2022/08/12 02:16:53;;;;;;;6.10;4.80;;;;;;;21.77;56.53;102117.88;5124790;28;20480;-59
2022/08/12 02:19:48;;;;;;;10.43;5.37;;;;;;;21.73;56.73;102121.94;5126517;28;20495;-57
2022/08/12 02:22:29;;;;;;;9.53;5.30;;;;;;;21.72;56.61;102119.47;5152670;28;20447;-58
2022/08/12 02:25:08;;;;;;;7.87;5.13;;;;;;;21.71;56.67;102117.78;5165284;28;20852;-59
2022/08/12 02:27:44;;;;;;;6.03;5.43;;;;;;;21.66;56.68;102109.47;5169963;28;21005;-59
2022/08/12 02:30:20;;;;;;;8.05;6.20;;;;;;;21.50;56.80;102095.25;5168289;28;20753;-59
2022/08/12 02:32:55;;;;;;;8.45;6.35;;;;;;;21.56;56.84;102107.09;5168879;28;20710;-59
2022/08/12 02:35:31;;;;;;;7.53;5.93;;;;;;;21.34;57.04;102092.78;5169575;28;20493;-60
2022/08/12 02:38:08;;;;;;;8.05;6.05;;;;;;;21.41;57.18;102112.53;5151541;28;20945;-60
2022/08/12 02:40:44;;;;;;;9.30;6.38;;;;;;;21.37;57.40;102105.88;5149426;28;20832;-60
2022/08/12 02:43:27;;;;;;;10.05;6.18;;;;;;;21.32;57.55;102102.88;5147214;28;20465;-58
2022/08/12 02:46:07;;;;;;;7.40;6.32;;;;;;;21.32;57.43;102100.19;5149727;28;21023;-60
2022/08/12 02:48:45;;;;;;;9.43;6.90;;;;;;;21.32;57.66;102102.88;5137137;28;20478;-57
2022/08/12 02:51:23;;;;;;;7.95;6.50;;;;;;;21.28;57.79;102098.94;5142693;28;20435;-60
2022/08/12 02:53:57;;;;;;;7.70;6.78;;;;;;;21.25;58.10;102099.31;5152211;28;20469;-60
2022/08/12 02:56:31;;;;;;;12.00;6.63;;;;;;;21.19;57.88;102092.84;5153589;28;20424;-60
2022/08/12 02:59:05;;;;;;;7.68;6.32;;;;;;;21.19;58.18;102092.84;5152453;28;20528;-60
2022/08/12 03:01:46;;;;;;;8.65;6.88;;;;;;;21.08;58.38;102086.09;5153276;28;20420;-60
2022/08/12 03:04:26;;;;;;;10.68;7.15;;;;;;;21.09;58.46;102087.75;5151112;28;20865;-59
2022/08/12 03:07:13;;;;;;;17.88;8.15;;;;;;;21.04;58.71;102090.16;5152776;28;20824;-60
2022/08/12 03:09:49;;;;;;;12.25;7.07;;;;;;;21.01;58.84;102082.50;5150940;28;20412;-58
2022/08/12 03:12:23;;;;;;;11.38;7.60;;;;;;;20.95;58.74;102080.56;5153039;28;20933;-58
2022/08/12 03:14:55;;;;;;;8.90;7.30;;;;;;;20.93;59.05;102085.28;5142664;28;20432;-59
2022/08/12 03:17:34;;;;;;;13.52;7.70;;;;;;;20.87;59.25;102075.28;5154056;28;20920;-59
2022/08/12 03:20:08;;;;;;;9.75;7.45;;;;;;;20.81;59.22;102067.97;5172152;28;20451;-58
2022/08/12 03:22:42;;;;;;;13.90;7.70;;;;;;;20.66;59.35;102055.44;5173399;28;20430;-59
2022/08/12 03:25:17;;;;;;;12.73;7.60;;;;;;;20.71;59.55;102068.28;5172881;28;20422;-59
2022/08/12 03:27:54;;;;;;;12.18;8.00;;;;;;;20.71;59.73;102079.84;5171013;28;20715;-60
2022/08/12 03:30:31;;;;;;;12.30;8.85;;;;;;;20.72;59.80;102080.69;5164876;28;20496;-60
2022/08/12 03:33:06;;;;;;;10.07;7.85;;;;;;;20.69;59.73;102071.16;5168167;28;20442;-60
2022/08/12 03:35:41;;;;;;;11.67;8.93;;;;;;;20.57;59.77;102056.53;5172934;28;20407;-60
2022/08/12 03:38:15;;;;;;;10.30;8.38;;;;;;;20.67;59.88;102064.31;5153615;28;20432;-59
2022/08/12 04:01:06;;;;;;;12.10;8.83;;;;;;;20.53;60.66;102065.97;5143478;28;20424;-58
2022/08/12 04:03:53;;;;;;;11.97;8.30;;;;;;;20.55;60.69;102060.44;5151157;28;20757;-58
2022/08/12 04:06:29;;;;;;;10.83;8.23;;;;;;;20.56;60.61;102062.91;5139240;28;20952;-58
2022/08/12 04:09:04;;;;;;;11.25;8.73;;;;;;;20.55;60.76;102061.25;5148331;28;20975;-58
2022/08/12 04:14:30;;;;;;;17.00;9.32;;;;;;;20.51;61.00;102057.25;5149894;28;20448;-59
2022/08/12 04:17:04;;;;;;;13.45;10.20;;;;;;;20.55;61.03;102069.31;5151200;28;20766;-59
2022/08/12 04:19:37;;;;;;;13.23;8.88;;;;;;;20.54;60.84;102069.50;5148062;28;20839;-58
2022/08/12 04:22:11;;;;;;;12.77;9.70;;;;;;;20.52;60.99;102069.69;5146997;28;20401;-59
2022/08/12 04:24:45;;;;;;;11.15;9.07;;;;;;;20.53;60.86;102082.06;5151711;28;20745;-59
2022/08/12 04:27:17;;;;;;;11.88;9.52;;;;;;;20.55;61.03;102068.47;5147845;28;20730;-59
2022/08/12 04:29:50;;;;;;;11.00;9.18;;;;;;;20.57;61.11;102071.81;5150259;28;20448;-58
2022/08/12 04:32:22;;;;;;;13.13;9.20;;;;;;;20.56;61.00;102065.59;5146760;28;20424;-58
2022/08/12 04:34:55;;;;;;;12.82;9.88;;;;;;;20.58;61.01;102068.94;5150737;28;20412;-59
2022/08/12 04:37:29;;;;;;;11.20;9.15;;;;;;;20.61;61.11;102073.94;5146898;28;20453;-59
2022/08/12 04:40:02;;;;;;;12.52;9.80;;;;;;;20.60;61.11;102061.53;5150857;28;20866;-59
2022/08/12 04:42:35;;;;;;;13.38;10.00;;;;;;;20.60;61.28;102066.91;5136732;28;23166;-60
2022/08/12 04:45:09;;;;;;;16.60;10.03;;;;;;;20.58;61.27;102060.06;5135227;28;20914;-59
2022/08/12 04:47:41;;;;;;;14.05;9.82;;;;;;;20.54;61.57;102056.91;5141523;28;20419;-59
2022/08/12 04:50:16;;;;;;;12.60;9.70;;;;;;;20.51;61.54;102054.56;5151179;28;20723;-59
2022/08/12 04:52:50;;;;;;;14.47;9.80;;;;;;;20.49;61.66;102060.09;5145260;28;20410;-59
2022/08/12 04:55:24;;;;;;;13.13;9.88;;;;;;;20.46;61.74;102054.28;5146148;28;20817;-59
2022/08/12 04:57:57;;;;;;;16.27;9.55;;;;;;;20.49;61.82;102049.38;5150665;28;20425;-60
2022/08/12 05:00:29;;;;;;;13.25;9.60;;;;;;;20.50;61.81;102051.06;5146364;28;20727;-58
2022/08/12 05:03:02;;;;;;;13.38;9.55;;;;;;;20.51;61.82;102051.88;5150687;28;20761;-60
2022/08/12 05:05:35;;;;;;;13.32;9.77;;;;;;;20.58;61.80;102046.63;5150336;28;20939;-60
2022/08/12 05:08:14;;;;;;;12.05;9.30;;;;;;;20.61;61.83;102047.09;5146721;28;20794;-60
2022/08/12 05:10:47;;;;;;;9.90;8.50;;;;;;;20.69;61.58;102049.69;5131674;28;21120;-60
2022/08/12 05:13:23;;;;;;;16.02;9.20;;;;;;;20.76;61.57;102048.94;5149816;28;20428;-59
2022/08/12 05:15:56;;;;;;;14.03;8.80;;;;;;;20.79;61.59;102053.94;5152925;28;20847;-58
2022/08/12 05:18:28;;;;;;;10.57;8.30;;;;;;;20.83;61.45;102053.34;5150612;28;20432;-59
2022/08/12 05:21:01;;;;;;;12.20;8.35;;;;;;;20.86;61.71;102057.53;5145154;28;20926;-59
2022/08/12 05:23:37;;;;;;;13.65;9.38;;;;;;;20.90;61.71;102053.44;5150184;28;20557;-60
2022/08/12 05:26:10;;;;;;;10.68;7.88;;;;;;;20.95;61.59;102053.69;5150314;28;20503;-59
2022/08/12 05:28:43;;;;;;;9.68;8.05;;;;;;;21.01;61.36;102055.63;5141458;28;20462;-59
2022/08/12 05:31:17;;;;;;;13.35;7.60;;;;;;;21.09;61.50;102060.91;5147934;28;20415;-41
2022/08/12 05:33:49;;;;;;;11.63;7.32;;;;;;;21.15;61.32;102060.16;5145181;28;20432;-58
2022/08/12 05:36:21;;;;;;;9.52;7.95;;;;;;;21.21;61.24;102063.91;5148986;28;20894;-60
2022/08/12 05:38:58;;;;;;;14.95;7.60;;;;;;;21.28;61.19;102059.44;5149898;28;20846;-59
2022/08/12 05:41:34;;;;;;;10.35;7.53;;;;;;;21.32;61.21;102070.66;5149855;28;20421;-58
2022/08/12 05:44:08;;;;;;;11.70;7.07;;;;;;;21.38;61.20;102069.91;5149673;28;20980;-59
2022/08/12 05:46:41;;;;;;;9.50;6.90;;;;;;;21.44;61.14;102071.00;5149381;28;20458;-59
2022/08/12 05:49:13;;;;;;;12.35;7.30;;;;;;;21.49;61.10;102066.69;5146377;28;20506;-59
2022/08/12 05:51:45;;;;;;;10.70;7.22;;;;;;;21.85;60.54;102065.78;5147375;28;20417;-42
2022/08/12 05:54:19;;;;;;;13.30;7.07;;;;;;;23.21;59.07;102069.66;5137496;28;20879;-59
2022/08/12 05:56:52;;;;;;;7.10;5.50;;;;;;;24.80;57.07;102068.72;5145741;28;20885;-60
2022/08/12 05:59:24;;;;;;;7.73;4.97;;;;;;;26.12;55.43;102068.88;5149746;28;20741;-58
2022/08/12 06:02:10;;;;;;;8.10;4.72;;;;;;;27.61;53.46;102068.47;5148953;28;20421;-59
2022/08/12 06:04:44;;;;;;;9.23;4.63;;;;;;;28.93;51.57;102067.06;5150522;28;20747;-60
2022/08/12 06:07:17;;;;;;;13.88;5.22;;;;;;;29.93;50.13;102064.69;5159311;28;20419;-58
2022/08/12 06:09:51;;;;;;;6.00;4.20;;;;;;;30.91;48.65;102071.19;5169107;28;20431;-60
2022/08/12 06:12:23;;;;;;;11.85;4.22;;;;;;;31.79;47.01;102067.34;5160107;28;20722;-59
2022/08/12 06:14:55;;;;;;;6.50;3.70;;;;;;;32.60;45.49;102065.06;5160087;28;20746;-59
2022/08/12 06:17:29;;;;;;;5.32;3.30;;;;;;;33.33;44.43;102066.88;5148654;28;20436;-59
2022/08/12 06:20:01;;;;;;;6.82;3.50;;;;;;;34.15;43.16;102077.78;5149101;28;20417;-59
2022/08/12 06:22:33;;;;;;;7.57;3.83;;;;;;;34.41;42.23;102078.50;5149393;28;20523;-59
2022/08/12 06:25:08;;;;;;;6.55;3.92;;;;;;;34.37;41.67;102067.25;5149292;28;20424;-58
2022/08/12 06:27:47;;;;;;;7.00;3.50;;;;;;;34.63;40.92;102072.66;5147867;28;20788;-59
2022/08/12 06:30:20;;;;;;;4.35;3.22;;;;;;;35.06;40.54;102075.75;5147311;28;20767;-54
2022/08/12 06:32:52;;;;;;;8.40;4.18;;;;;;;34.87;40.23;102068.13;5147970;28;20751;-60
2022/08/12 06:35:26;;;;;;;6.82;3.38;;;;;;;34.96;39.61;102070.25;5148700;28;20854;-59
2022/08/12 06:37:59;;;;;;;6.70;3.38;;;;;;;35.47;38.80;102065.22;5146075;28;20444;-59
2022/08/12 06:43:22;;;;;;;3.33;2.80;;;;;;;36.24;37.66;102057.03;5129938;28;20513;-59
2022/08/12 06:45:56;;;;;;;3.80;3.13;;;;;;;36.41;36.97;102050.22;5140952;28;20436;-57
2022/08/12 06:48:29;;;;;;;7.75;3.63;;;;;;;36.23;36.66;102055.38;5132473;28;20792;-57
2022/08/12 06:51:02;;;;;;;6.80;3.45;;;;;;;36.30;36.44;102044.03;5136996;28;20429;-57
2022/08/12 06:53:34;;;;;;;7.63;3.40;;;;;;;36.12;36.26;102056.63;5133054;28;20432;-57
2022/08/12 06:56:08;;;;;;;8.63;3.25;;;;;;;35.71;36.64;102050.72;5147643;28;20409;-57
2022/08/12 06:58:40;;;;;;;13.82;4.07;;;;;;;35.59;36.62;102055.81;5149388;28;20743;-57
2022/08/12 07:01:13;;;;;;;4.78;3.30;;;;;;;35.73;36.19;102052.06;5148466;28;20428;-57
2022/08/12 07:03:46;;;;;;;7.20;3.30;;;;;;;36.13;35.51;102039.00;5148244;28;20817;-52
2022/08/12 07:06:19;;;;;;;8.67;3.83;;;;;;;36.70;34.84;102041.84;5159953;28;20755;-58
2022/08/12 07:08:51;;;;;;;6.30;2.97;;;;;;;37.35;34.15;102041.94;5168782;28;20879;-58
2022/08/12 07:11:27;;;;;;;7.53;2.97;;;;;;;37.82;33.64;102050.22;5168986;28;20417;-57
2022/08/12 07:14:03;;;;;;;7.95;3.38;;;;;;;37.73;33.38;102013.44;5165554;28;20422;-54
2022/08/12 07:19:22;;;;;;;7.17;3.03;;;;;;;37.19;33.72;102048.00;5142900;28;20408;-56
2022/08/12 07:21:54;;;;;;;8.57;2.90;;;;;;;37.25;33.44;102052.31;5148660;28;20726;-54
2022/08/12 07:24:27;;;;;;;6.85;3.38;;;;;;;37.47;33.08;102049.75;5148191;28;20451;-56
2022/08/12 07:27:00;;;;;;;5.30;2.88;;;;;;;37.52;32.95;102052.41;5148202;28;20451;-55
2022/08/12 07:29:33;;;;;;;5.35;3.20;;;;;;;37.47;32.86;102048.94;5148316;28;20548;-57
2022/08/12 07:32:05;;;;;;;7.47;3.40;;;;;;;37.12;33.13;102049.22;5140513;28;24028;-55
2022/08/12 07:34:38;;;;;;;9.20;3.70;;;;;;;36.88;33.34;102043.78;5144104;28;20417;-56
2022/08/12 07:37:11;;;;;;;8.15;3.47;;;;;;;36.72;33.41;102056.13;5144452;28;20816;-52
2022/08/12 07:39:44;;;;;;;6.13;3.03;;;;;;;36.61;33.16;102058.22;5151077;28;20425;-54
2022/08/12 07:42:17;;;;;;;7.95;4.18;;;;;;;36.55;33.21;102059.41;5149382;28;20716;-54
2022/08/12 07:44:50;;;;;;;4.93;2.63;;;;;;;36.44;33.03;102052.38;5152164;28;20422;-55
2022/08/12 07:47:22;;;;;;;6.07;2.97;;;;;;;36.31;33.37;102058.59;5151689;28;20798;-55
2022/08/12 07:49:55;;;;;;;4.95;2.97;;;;;;;36.49;33.09;102057.81;5138679;28;20493;-57
2022/08/12 07:52:27;;;;;;;3.88;2.60;;;;;;;36.50;33.10;102066.88;5141908;28;20421;-54
2022/08/12 07:55:00;;;;;;;7.20;2.92;;;;;;;36.36;33.11;102064.03;5151900;28;20455;-54
2022/08/12 07:57:36;;;;;;;4.93;2.93;;;;;;;36.63;32.72;102068.94;5151700;28;20425;-54
2022/08/12 08:00:10;;;;;;;7.20;3.28;;;;;;;37.08;32.07;102067.47;5166853;28;20425;-55
2022/08/12 08:02:42;;;;;;;7.90;3.13;;;;;;;36.92;32.40;102066.03;5172700;28;20847;-54
2022/08/12 08:05:16;;;;;;;4.15;2.65;;;;;;;36.91;32.23;102065.19;5171387;28;20437;-51
2022/08/12 08:07:49;;;;;;;5.88;2.70;;;;;;;37.27;32.05;102067.44;5169730;28;20407;-55
2022/08/12 08:10:21;;;;;;;6.13;2.70;;;;;;;37.36;32.00;102073.88;5159659;28;20748;-55
2022/08/12 08:12:55;;;;;;;4.43;2.65;;;;;;;37.14;32.16;102069.03;5171766;28;20518;-55
2022/08/12 08:15:31;;;;;;;4.30;2.72;;;;;;;36.81;32.42;102070.06;5158003;28;20424;-51
2022/08/12 08:18:06;;;;;;;4.88;2.90;;;;;;;36.34;33.20;102066.28;5151417;28;20735;-53
2022/08/12 08:20:41;;;;;;;3.42;2.35;;;;;;;35.97;33.28;102065.03;5151154;28;20854;-55
2022/08/12 08:23:16;;;;;;;4.45;2.60;;;;;;;35.74;33.40;102059.22;5146605;28;20416;-55
2022/08/12 08:25:49;;;;;;;7.93;2.67;;;;;;;35.74;33.30;102059.22;5149691;28;20897;-53
2022/08/12 08:28:22;;;;;;;3.38;2.00;;;;;;;35.67;33.39;102064.22;5149900;28;20508;-52
2022/08/12 08:30:55;;;;;;;4.32;2.40;;;;;;;35.51;33.60;102055.28;5145709;28;20440;-52
2022/08/12 08:33:27;;;;;;;3.53;2.30;;;;;;;35.26;33.67;102053.59;5137294;28;20447;-51
2022/08/12 08:36:00;;;;;;;5.78;2.47;;;;;;;34.87;33.90;102057.16;5144143;28;20419;-55
2022/08/12 08:38:32;;;;;;;4.78;2.53;;;;;;;34.25;34.36;102053.03;5136416;28;20922;-56
2022/08/12 08:43:57;;;;;;;5.87;2.23;;;;;;;33.83;34.80;102053.44;5135702;28;20862;-53
2022/08/12 08:46:31;;;;;;;5.38;2.05;;;;;;;33.64;34.67;102055.94;5137816;28;20429;-51
2022/08/12 08:49:04;;;;;;;3.58;2.08;;;;;;;33.39;34.91;102027.44;5137683;28;20904;-55
2022/08/12 08:51:37;;;;;;;4.15;2.63;;;;;;;33.39;34.96;102060.31;5134188;28;20515;-47
2022/08/12 08:54:10;;;;;;;4.63;2.65;;;;;;;33.07;35.12;102063.28;5149186;28;20415;-53
2022/08/12 08:56:48;;;;;;;4.57;2.50;;;;;;;32.73;35.11;102060.19;5165910;28;20524;-53
2022/08/12 08:59:22;;;;;;;6.75;2.58;;;;;;;32.64;35.50;102064.53;5161192;28;22876;-55
2022/08/12 09:01:55;;;;;;;3.72;2.33;;;;;;;32.58;35.53;102067.25;5163506;28;20505;-56
2022/08/12 09:04:27;;;;;;;3.95;2.25;;;;;;;32.68;34.85;102061.00;5165107;28;20502;-52
2022/08/12 09:07:00;;;;;;;4.00;2.40;;;;;;;32.78;34.95;102061.00;5158305;28;20421;-53
2022/08/12 09:09:36;;;;;;;5.43;2.63;;;;;;;32.64;34.86;102070.00;5167684;28;20423;-51
2022/08/12 09:15:00;;;;;;;5.35;2.30;;;;;;;32.26;35.13;102063.81;5144798;28;20440;-53
2022/08/12 09:21:18;;;;;;;4.32;2.40;;;;;;;31.81;35.38;102063.25;5166348;28;20783;-51
2022/08/12 09:23:55;;;;;;;6.03;3.00;;;;;;;32.01;35.27;102053.56;5162444;28;20438;-53
2022/08/12 09:26:27;;;;;;;4.25;2.50;;;;;;;31.87;35.16;102048.53;5165457;28;20423;-53
2022/08/12 09:29:00;;;;;;;5.72;2.70;;;;;;;31.75;35.32;102068.97;5165615;28;20407;-50
2022/08/12 09:31:35;;;;;;;7.40;2.92;;;;;;;31.60;35.38;102056.81;5164493;28;20434;-52
2022/08/12 09:34:09;;;;;;;3.80;2.37;;;;;;;31.85;35.07;102058.09;5159417;28;20418;-53
2022/08/12 09:36:42;;;;;;;5.13;2.33;;;;;;;32.07;34.80;102050.59;5138783;28;20846;-52
2022/08/12 09:39:14;;;;;;;11.52;3.17;;;;;;;32.12;34.93;102052.53;5149903;28;20512;-52
2022/08/12 09:45:19;;;;;;;6.47;2.92;;;;;;;31.89;34.95;102053.75;5162723;28;20427;-50
2022/08/12 09:47:32;;;;;;;5.50;3.40;;;;;;;31.29;35.20;102054.91;5138932;28;20425;-52
2022/08/12 09:50:05;;;;;;;5.22;3.15;;;;;;;31.19;35.39;102052.91;5162775;28;20425;-49
2022/08/12 09:52:37;;;;;;;6.80;3.20;;;;;;;31.12;35.50;102050.38;5161987;28;20419;-53
2022/08/12 09:55:10;;;;;;;7.85;2.88;;;;;;;31.13;35.50;102054.75;5161274;28;20427;-50
2022/08/12 09:57:42;;;;;;;4.13;3.08;;;;;;;31.01;35.54;102054.91;5160176;28;20807;-52
2022/08/12 10:00:15;;;;;;;9.88;4.00;;;;;;;30.91;35.62;102043.06;5162507;28;20414;-53
2022/08/12 10:03:05;;;;;;;6.20;3.53;;;;;;;30.85;36.03;102050.41;5160074;28;20436;-53
2022/08/12 10:05:42;;;;;;;8.00;3.50;;;;;;;30.78;36.07;102047.88;5162490;28;20415;-50
2022/08/12 10:08:16;;;;;;;5.97;3.55;;;;;;;30.98;36.02;102038.25;5157881;28;20427;-54
2022/08/12 10:13:43;;;;;;;5.60;3.70;;;;;;;31.15;35.72;102049.84;5153662;28;20406;-53
2022/08/12 10:16:18;;;;;;;9.75;4.25;;;;;;;31.16;35.60;102046.06;5144318;28;20773;-42
2022/08/12 10:18:55;;;;;;;11.50;3.95;;;;;;;30.90;36.15;102034.06;5159569;28;20494;-48
2022/08/12 10:21:35;;;;;;;6.55;4.10;;;;;;;31.06;35.99;102037.75;5151050;28;20445;-49
2022/08/12 10:24:10;;;;;;;5.72;3.10;;;;;;;31.21;36.15;102029.72;5165592;28;20438;-48
2022/08/12 10:29:38;;;;;;;5.70;3.20;;;;;;;31.68;35.75;102020.00;5130032;28;20895;-51
2022/08/12 10:32:15;;;;;;;7.03;3.20;;;;;;;31.74;35.78;102018.13;5140159;28;20441;-49
2022/08/12 10:34:49;;;;;;;9.75;4.82;;;;;;;31.74;35.70;102018.94;5136593;28;20419;-47
2022/08/12 10:37:22;;;;;;;6.75;3.40;;;;;;;31.58;35.87;102020.75;5133592;28;20877;-48
2022/08/12 10:39:54;;;;;;;5.55;3.65;;;;;;;31.53;35.81;102028.09;5137544;28;20454;-48
2022/08/12 10:45:30;;;;;;;6.57;3.50;;;;;;;31.60;35.73;102013.13;5112209;28;20445;-49
2022/08/12 10:48:04;;;;;;;7.65;3.90;;;;;;;31.60;35.87;102002.22;5137368;28;20411;-51
2022/08/12 10:50:40;;;;;;;10.20;4.32;;;;;;;31.66;35.73;101995.69;5155025;28;20750;-48
2022/08/12 10:53:12;;;;;;;5.95;3.55;;;;;;;31.59;35.97;101992.38;5144027;28;20441;-48
2022/08/12 10:55:45;;;;;;;7.88;3.90;;;;;;;31.53;36.00;101990.69;5159384;28;20937;-48
2022/08/12 10:58:17;;;;;;;5.90;3.80;;;;;;;31.60;35.92;101993.19;5159445;28;20588;-48
2022/08/12 11:00:49;;;;;;;9.48;3.63;;;;;;;31.58;35.85;101993.44;5158437;28;20445;-47
2022/08/12 11:03:22;;;;;;;7.67;3.67;;;;;;;31.60;35.92;101985.00;5158521;28;20784;-52
2022/08/12 11:05:57;;;;;;;9.77;3.20;;;;;;;31.76;35.75;101988.66;5163433;28;20414;-52
2022/08/12 11:08:29;;;;;;;6.25;3.22;;;;;;;32.06;35.22;101983.38;5163708;28;20534;-52
2022/08/12 11:11:03;;;;;;;9.82;3.22;;;;;;;32.39;35.13;101986.75;5163206;28;20507;-49
2022/08/12 11:13:35;;;;;;;5.80;3.17;;;;;;;32.69;34.87;101986.03;5131491;28;20837;-49
2022/08/12 11:16:08;;;;;;;6.13;3.28;;;;;;;32.75;34.59;101978.66;5131158;28;20831;-49
2022/08/12 11:18:41;;;;;;;6.35;3.00;;;;;;;32.87;34.43;101975.69;5130166;28;20453;-48
2022/08/12 11:21:14;;;;;;;4.60;2.47;;;;;;;32.97;34.42;101978.41;5132859;28;20490;-51
2022/08/12 11:23:47;;;;;;;6.57;3.05;;;;;;;33.08;34.29;101966.41;5130710;28;20935;-57
2022/08/12 11:26:20;;;;;;;5.63;2.70;;;;;;;33.11;34.18;101965.03;5129578;28;20797;-47
2022/08/12 11:28:52;;;;;;;6.65;3.05;;;;;;;33.25;33.67;101963.38;5127896;28;20434;-48
2022/08/12 11:31:24;;;;;;;6.73;3.57;;;;;;;33.40;33.78;101966.09;5139198;28;20952;-52
2022/08/12 11:33:57;;;;;;;5.47;2.72;;;;;;;33.51;33.48;101966.91;5137938;28;20761;-52
2022/08/12 11:36:31;;;;;;;6.78;3.33;;;;;;;33.33;33.33;101965.56;5153769;28;20434;-49
2022/08/12 11:39:04;;;;;;;5.67;2.90;;;;;;;33.14;33.41;101959.00;5125546;28;21029;-49
2022/08/12 11:41:39;;;;;;;4.80;2.93;;;;;;;32.94;33.73;101959.81;5125022;28;20441;-47
2022/08/12 11:44:11;;;;;;;4.85;2.40;;;;;;;32.86;33.61;101952.97;5117895;28;20511;-51
2022/08/12 11:46:45;;;;;;;5.75;2.88;;;;;;;32.90;33.79;101958.72;5132057;28;20428;-48
2022/08/12 11:49:17;;;;;;;5.35;2.42;;;;;;;32.85;33.77;101945.84;5127286;28;20916;-47
2022/08/12 11:51:51;;;;;;;6.07;2.88;;;;;;;32.95;33.42;101951.34;5137700;28;20811;-50
2022/08/12 11:54:24;;;;;;;6.97;2.15;;;;;;;32.99;33.65;101946.16;5136237;28;20901;-48
2022/08/12 11:56:56;;;;;;;4.35;2.17;;;;;;;32.94;33.25;101933.25;5132908;28;20458;-49
2022/08/12 11:59:29;;;;;;;5.38;1.92;;;;;;;33.22;32.68;101947.50;5138198;28;20473;-49
2022/08/12 12:02:01;;;;;;;4.55;2.10;;;;;;;33.25;32.41;101944.22;5148168;28;20448;-47
2022/08/12 12:04:34;;;;;;;4.45;1.90;;;;;;;33.18;32.31;101943.69;5150930;28;20721;-50
2022/08/12 12:07:07;;;;;;;3.15;2.10;;;;;;;33.13;32.09;101936.28;5139039;28;23656;-47
2022/08/12 12:09:40;;;;;;;3.17;1.80;;;;;;;33.15;31.73;101938.75;5138980;28;20521;-46
2022/08/12 12:12:12;;;;;;;6.50;2.20;;;;;;;33.27;31.43;101942.03;5141258;28;20838;-48
2022/08/12 12:14:45;;;;;;;5.35;1.83;;;;;;;33.34;31.15;101930.78;5134694;28;20434;-45
2022/08/12 12:17:17;;;;;;;4.00;2.00;;;;;;;33.42;30.52;101933.78;5147022;28;20525;-50
2022/08/12 12:19:50;;;;;;;5.10;2.28;;;;;;;33.13;30.17;101892.47;5136454;28;20756;-50
2022/08/12 12:22:23;;;;;;;5.47;1.80;;;;;;;33.36;29.95;101923.94;5142162;28;20540;-48
2022/08/12 12:24:56;;;;;;;1.80;1.58;;;;;;;33.47;29.54;101924.72;5132709;28;20801;-53
2022/08/12 12:27:28;;;;;;;3.15;1.80;;;;;;;33.49;29.39;101928.84;5135817;28;20468;-52
2022/08/12 12:30:00;;;;;;;6.30;1.92;;;;;;;33.44;29.38;101919.81;5139231;28;20919;-48
2022/08/12 12:32:33;;;;;;;7.93;2.05;;;;;;;33.43;28.90;101918.16;5145678;28;20901;-52
2022/08/12 12:35:06;;;;;;;3.65;1.77;;;;;;;33.53;28.77;101911.88;5145580;28;20860;-52
2022/08/12 12:37:55;;;;;;;6.40;2.00;;;;;;;33.67;28.15;101924.69;5138862;28;20496;-50
2022/08/12 12:40:30;;;;;;;2.25;1.90;;;;;;;33.57;28.40;101912.94;5140329;28;20977;-48
2022/08/12 12:43:03;;;;;;;5.65;2.03;;;;;;;33.68;27.93;101917.31;5152228;28;20461;-50
2022/08/12 12:45:38;;;;;;;2.40;2.00;;;;;;;33.63;27.49;101896.22;5141518;28;20441;-48
2022/08/12 12:48:12;;;;;;;2.72;1.90;;;;;;;33.83;27.51;101913.69;5146605;28;20419;-50
2022/08/12 12:51:14;;;;;;;5.30;1.98;;;;;;;33.90;27.29;101909.53;5148056;28;20440;-53
2022/08/12 12:53:44;;;;;;;4.78;2.00;;;;;;;33.86;27.01;101900.25;5120699;28;20416;-49
2022/08/12 12:56:20;;;;;;;4.22;2.00;;;;;;;33.79;26.95;101904.38;5127821;28;20855;-51
2022/08/12 12:58:53;;;;;;;3.63;2.10;;;;;;;33.59;26.65;101886.09;5123589;28;20809;-51
2022/08/12 13:01:26;;;;;;;5.57;2.00;;;;;;;33.64;26.55;101897.06;5141535;28;20976;-52
2022/08/12 13:03:58;;;;;;;2.55;1.60;;;;;;;33.76;26.64;101900.28;5145700;28;20537;-51
2022/08/12 13:06:31;;;;;;;8.32;2.25;;;;;;;33.77;26.25;101888.22;5143251;28;20881;-51
2022/08/12 13:09:05;;;;;;;5.13;1.83;;;;;;;33.75;26.26;101888.50;5146239;28;20824;-50
2022/08/12 13:11:38;;;;;;;5.30;1.88;;;;;;;33.72;26.35;101894.53;5146096;28;20850;-51
2022/08/12 13:14:11;;;;;;;3.10;2.03;;;;;;;33.81;26.35;101886.56;5149363;28;20910;-52
2022/08/12 13:16:51;;;;;;;6.40;2.10;;;;;;;33.96;25.86;101894.69;5149251;28;20740;-51
2022/08/12 13:19:23;;;;;;;5.20;1.75;;;;;;;34.03;25.96;101890.84;5151557;28;20545;-50
2022/08/12 13:24:46;;;;;;;3.30;1.80;;;;;;;34.13;25.48;101888.06;5154506;28;20749;-51
2022/08/12 13:27:19;;;;;;;6.00;1.92;;;;;;;34.08;25.57;101886.16;5139470;28;20409;-52
2022/08/12 13:29:53;;;;;;;3.00;1.80;;;;;;;34.05;25.77;101886.75;5130746;28;20972;-51
2022/08/12 13:32:28;;;;;;;5.75;1.70;;;;;;;34.08;25.61;101879.88;5146083;28;20438;-51
2022/08/12 13:35:02;;;;;;;3.70;1.88;;;;;;;34.28;25.62;101879.72;5143419;28;20894;-50
2022/08/12 13:37:34;;;;;;;4.72;1.88;;;;;;;34.52;25.24;101879.03;5150265;28;20537;-49
2022/08/12 13:40:10;;;;;;;4.57;1.75;;;;;;;34.62;25.04;101884.44;5156700;28;20452;-48
2022/08/12 13:42:47;;;;;;;3.10;1.60;;;;;;;34.76;25.29;101888.19;5139675;28;20438;-50
2022/08/12 13:45:21;;;;;;;5.60;1.88;;;;;;;34.80;25.13;101880.19;5135899;28;20824;-49
2022/08/12 13:47:56;;;;;;;5.88;1.98;;;;;;;34.92;25.13;101877.06;5134865;28;20432;-46
2022/08/12 13:50:32;;;;;;;9.25;1.85;;;;;;;34.93;25.17;101878.69;5148322;28;20901;-52
2022/08/12 13:53:08;;;;;;;2.25;1.60;;;;;;;34.87;24.95;101873.25;5152420;28;20881;-51
2022/08/12 13:55:57;;;;;;;5.40;1.65;;;;;;;34.78;24.90;101871.41;5139375;28;20773;-50
2022/08/12 13:58:31;;;;;;;3.43;1.67;;;;;;;34.58;24.94;101861.44;5126131;28;21089;-51